Time;durP1;ratioP1;P1;durP2;ratioP2;P2;SDS_P1;SDS_P2;PMS_P1;PMS_P2;Temp;Humidity;BMP_temperature;BMP_pressure;BME280_temperature;BME280_humidity;BME280_pressure;Samples;Min_cycle;Max_cycle;Signal;HPM_P1;HPM_P2
2020/12/02 00:01:25;;;;;;;58.02;24.35;;;;;;;-0.25;87.41;101241.32;1783120;80;21681;-66
2020/12/02 00:04:12;;;;;;;36.90;16.75;;;;;;;-0.26;87.33;101239.55;1783382;80;21226;-64
2020/12/02 00:06:41;;;;;;;34.67;16.10;;;;;;;-0.28;87.22;101240.36;1783250;79;21146;-65
2020/12/02 00:09:18;;;;;;;26.52;13.98;;;;;;;-0.28;87.19;101240.36;1783417;80;21150;-65
2020/12/02 00:11:48;;;;;;;34.08;16.10;;;;;;;-0.28;87.23;101238.64;1783437;80;21355;-66
2020/12/02 00:14:26;;;;;;;31.77;15.88;;;;;;;-0.29;87.22;101245.09;1783278;79;22240;-67
2020/12/02 00:16:54;;;;;;;28.35;14.85;;;;;;;-0.30;87.32;101247.20;1783434;80;21127;-64
2020/12/02 00:19:23;;;;;;;26.97;13.53;;;;;;;-0.28;87.27;101242.95;1783365;79;21182;-65
2020/12/02 00:22:10;;;;;;;25.45;13.53;;;;;;;-0.26;87.29;101247.32;1783376;79;21174;-65
2020/12/02 00:24:38;;;;;;;30.32;16.17;;;;;;;-0.26;87.22;101244.73;1783379;80;21610;-65
2020/12/02 00:27:19;;;;;;;28.85;15.40;;;;;;;-0.29;87.19;101245.09;1783145;80;21151;-66
2020/12/02 00:29:48;;;;;;;29.40;15.10;;;;;;;-0.30;87.31;101250.70;1783444;80;21641;-65
2020/12/02 00:32:30;;;;;;;28.60;14.63;;;;;;;-0.30;87.19;101253.28;1783322;80;21218;-65
2020/12/02 00:34:58;;;;;;;31.40;14.98;;;;;;;-0.28;87.22;101251.58;1783490;80;21167;-66
2020/12/02 00:37:28;;;;;;;34.95;17.25;;;;;;;-0.29;87.27;101249.84;1783289;80;21354;-65
2020/12/02 00:39:57;;;;;;;43.63;23.77;;;;;;;-0.31;87.32;101249.35;1783526;80;21626;-66
2020/12/02 00:42:25;;;;;;;36.63;16.75;;;;;;;-0.34;87.39;101247.56;1783253;80;21183;-65
2020/12/02 00:44:53;;;;;;;31.17;14.73;;;;;;;-0.33;87.40;101245.42;1783334;80;21223;-66
2020/12/02 00:47:23;;;;;;;29.10;14.50;;;;;;;-0.34;87.36;101240.22;1786346;79;21175;-65
2020/12/02 00:49:53;;;;;;;33.53;16.55;;;;;;;-0.37;87.37;101240.99;1789527;79;21316;-66
2020/12/02 00:52:22;;;;;;;31.97;16.23;;;;;;;-0.37;87.50;101245.30;1789693;79;21166;-65
2020/12/02 00:54:50;;;;;;;31.80;15.72;;;;;;;-0.40;87.66;101246.10;1789490;80;21162;-65
2020/12/02 00:57:23;;;;;;;30.30;15.28;;;;;;;-0.36;87.64;101247.94;1788926;80;21139;-64
2020/12/02 00:59:59;;;;;;;34.65;16.32;;;;;;;-0.37;87.61;101247.47;1789270;80;21162;-65
2020/12/02 01:02:55;;;;;;;33.10;17.07;;;;;;;-0.40;87.62;101243.52;1789450;80;21339;-65
2020/12/02 01:05:25;;;;;;;29.15;14.60;;;;;;;-0.41;87.54;101244.37;1765367;78;21177;-65
2020/12/02 01:07:54;;;;;;;29.87;15.25;;;;;;;-0.44;87.57;101241.68;1789623;80;21637;-65
2020/12/02 01:10:22;;;;;;;27.02;13.78;;;;;;;-0.42;87.47;101237.42;1789361;80;21589;-65
2020/12/02 01:12:50;;;;;;;31.60;16.75;;;;;;;-0.44;87.56;101231.33;1789491;80;21138;-66
2020/12/02 01:15:20;;;;;;;38.83;18.67;;;;;;;-0.40;87.61;101229.70;1770052;80;21671;-66
2020/12/02 01:18:09;;;;;;;31.93;14.50;;;;;;;-0.43;87.51;101231.80;1758131;81;21576;-63
2020/12/02 01:20:37;;;;;;;33.40;15.72;;;;;;;-0.44;87.44;101228.73;1730130;82;21225;-64
2020/12/02 01:23:05;;;;;;;41.68;17.95;;;;;;;-0.43;87.45;101229.22;1737269;82;21187;-64
2020/12/02 01:25:32;;;;;;;32.75;16.90;;;;;;;-0.48;87.34;101233.41;1737324;82;21185;-64
2020/12/02 01:28:07;;;;;;;35.68;16.62;;;;;;;-0.51;87.49;101232.01;1737286;82;21257;-64
2020/12/02 01:30:37;;;;;;;27.85;14.03;;;;;;;-0.53;87.75;101232.38;1758211;81;21172;-65
2020/12/02 01:33:05;;;;;;;30.23;15.32;;;;;;;-0.53;87.67;101231.09;1712442;82;21830;-63
2020/12/02 01:35:34;;;;;;;36.23;17.30;;;;;;;-0.54;87.59;101226.77;1726186;83;21233;-64
2020/12/02 01:38:04;;;;;;;33.00;16.25;;;;;;;-0.56;87.64;101227.14;1732139;82;21613;-65
2020/12/02 01:40:34;;;;;;;30.88;15.00;;;;;;;-0.58;87.71;101227.09;1732411;82;21371;-64
2020/12/02 01:43:08;;;;;;;35.30;17.62;;;;;;;-0.64;86.68;101227.83;1719495;82;21586;-63
2020/12/02 01:45:48;;;;;;;35.45;17.40;;;;;;;-0.65;86.25;101231.66;1711702;83;21279;-64
2020/12/02 01:50:32;;;;;;;40.67;17.97;;;;;;;-0.69;85.28;101229.81;1774905;79;22630;-65
2020/12/02 01:53:26;;;;;;;41.30;19.52;;;;;;;-0.78;84.95;101233.05;1747799;82;21619;-64
2020/12/02 01:55:59;;;;;;;38.00;17.07;;;;;;;-0.79;85.29;101225.24;1747967;82;21503;-64
2020/12/02 01:58:54;;;;;;;46.75;20.52;;;;;;;-0.78;85.39;101224.00;1747931;82;21208;-64
2020/12/02 02:01:58;;;;;;;44.38;20.00;;;;;;;-0.83;85.24;101221.69;1747956;81;21151;-65
2020/12/02 02:04:41;;;;;;;42.53;18.32;;;;;;;-0.88;85.46;101221.98;1746402;82;21194;-64
2020/12/02 02:07:17;;;;;;;39.63;19.15;;;;;;;-0.91;85.54;101214.16;1710095;83;21211;-65
2020/12/02 02:09:54;;;;;;;45.10;18.98;;;;;;;-0.93;85.73;101214.53;1718007;83;21087;-64
2020/12/02 02:13:02;;;;;;;41.15;18.73;;;;;;;-0.94;85.84;101224.00;1717934;82;21132;-64
2020/12/02 02:15:50;;;;;;;44.23;19.48;;;;;;;-0.94;85.89;101223.13;1717951;83;21780;-65
2020/12/02 02:18:24;;;;;;;44.90;19.95;;;;;;;-0.96;85.92;101217.91;1718048;82;21202;-64
2020/12/02 02:21:04;;;;;;;42.08;19.87;;;;;;;-0.98;85.85;101217.41;1718003;83;21183;-64
2020/12/02 02:23:32;;;;;;;43.40;18.98;;;;;;;-1.01;85.99;101217.31;1718013;83;21377;-64
2020/12/02 02:26:39;;;;;;;49.08;20.92;;;;;;;-1.01;85.98;101217.31;1717958;83;21571;-65
2020/12/02 02:29:35;;;;;;;40.23;18.82;;;;;;;-1.01;85.99;101221.19;1718109;83;21204;-66
2020/12/02 02:32:13;;;;;;;48.15;19.10;;;;;;;-1.04;85.91;101223.70;1718068;83;21681;-65
2020/12/02 02:34:49;;;;;;;37.00;17.65;;;;;;;-1.08;85.90;101219.75;1718107;83;21747;-66
2020/12/02 02:37:19;;;;;;;36.23;17.95;;;;;;;-1.07;85.86;101217.61;1718007;83;21381;-65
2020/12/02 02:39:47;;;;;;;38.43;18.57;;;;;;;-1.07;85.92;101218.90;1718303;83;21175;-65
2020/12/02 02:42:38;;;;;;;40.52;18.27;;;;;;;-1.07;85.99;101226.66;1717895;83;21183;-66
2020/12/02 02:45:13;;;;;;;;;;;;;;;-1.07;85.85;101229.23;1720650;83;21189;-65
2020/12/02 02:47:42;;;;;;;44.65;19.77;;;;;;;-1.08;85.46;101234.39;1718055;83;20263;-65
2020/12/02 02:50:14;;;;;;;46.05;20.00;;;;;;;-1.09;85.68;101230.91;1685501;84;22634;-65
2020/12/02 02:52:43;;;;;;;44.80;18.65;;;;;;;-1.14;85.38;101232.48;1705248;84;21666;-65
2020/12/02 02:55:20;;;;;;;42.23;18.20;;;;;;;-1.14;85.45;101231.20;1705253;83;21164;-66
2020/12/02 02:57:48;;;;;;;44.15;19.90;;;;;;;-1.14;85.42;101233.78;1686329;84;21183;-65
2020/12/02 03:00:26;;;;;;;41.70;19.20;;;;;;;-1.14;85.54;101237.66;1704995;83;21670;-66
2020/12/02 03:02:56;;;;;;;39.50;18.75;;;;;;;-1.16;85.53;101238.03;1701512;84;22766;-65
2020/12/02 03:05:25;;;;;;;39.80;18.40;;;;;;;-1.16;85.44;101238.03;1704909;82;22188;-65
2020/12/02 03:07:59;;;;;;;47.38;22.55;;;;;;;-1.19;85.37;101237.08;1704816;84;21175;-66
2020/12/02 03:10:31;;;;;;;43.95;21.35;;;;;;;-1.21;85.58;101240.04;1704782;84;21187;-65
2020/12/02 03:13:02;;;;;;;66.50;25.50;;;;;;;-1.21;85.53;101235.73;1704641;84;21179;-65
2020/12/02 03:15:31;;;;;;;50.75;21.30;;;;;;;-1.22;85.62;101236.58;1704913;82;21659;-64
2020/12/02 03:17:59;;;;;;;46.00;19.95;;;;;;;-1.22;85.75;101226.25;1704755;82;21227;-64
2020/12/02 03:20:36;;;;;;;43.30;18.85;;;;;;;-1.22;85.74;101223.66;1704787;84;21905;-64
2020/12/02 03:23:07;;;;;;;43.50;19.23;;;;;;;-1.21;85.51;101222.81;1704731;83;21119;-64
2020/12/02 03:25:34;;;;;;;38.42;17.95;;;;;;;-1.24;85.50;101218.86;1704839;84;21164;-65
2020/12/02 03:28:02;;;;;;;40.83;18.62;;;;;;;-1.24;85.69;101224.03;1684681;84;21753;-64
2020/12/02 03:30:30;;;;;;;50.83;20.75;;;;;;;-1.24;85.62;101227.91;1704674;84;22035;-63
2020/12/02 03:32:59;;;;;;;43.28;19.07;;;;;;;-1.26;85.64;101225.69;1704794;84;21676;-64
2020/12/02 03:35:30;;;;;;;42.13;19.57;;;;;;;-1.25;85.62;101221.39;1704649;84;21164;-64
2020/12/02 03:37:58;;;;;;;37.90;17.95;;;;;;;-1.24;85.69;101226.61;1704761;84;21643;-65
2020/12/02 03:40:26;;;;;;;42.73;18.40;;;;;;;-1.26;85.65;101223.11;1704545;83;21255;-65
2020/12/02 03:42:54;;;;;;;45.92;20.10;;;;;;;-1.28;85.63;101225.63;1688400;84;21195;-68
2020/12/02 03:45:23;;;;;;;43.23;18.73;;;;;;;-1.30;85.78;101221.26;1676082;85;21248;-66
2020/12/02 03:47:51;;;;;;;44.70;19.15;;;;;;;-1.30;85.92;101221.26;1676175;85;21183;-66
2020/12/02 03:50:19;;;;;;;40.28;19.90;;;;;;;-1.29;85.86;101220.41;1682210;83;21720;-64
2020/12/02 03:52:47;;;;;;;48.65;22.62;;;;;;;-1.32;85.77;101222.92;1683879;85;21373;-65
2020/12/02 03:55:17;;;;;;;48.75;22.10;;;;;;;-1.35;85.83;101221.13;1683942;85;21666;-63
2020/12/02 03:57:45;;;;;;;46.80;21.50;;;;;;;-1.32;85.92;101220.34;1684173;84;21211;-64
2020/12/02 04:00:13;;;;;;;39.27;17.75;;;;;;;-1.32;86.00;101220.34;1685125;83;21661;-64
2020/12/02 04:02:41;;;;;;;43.55;19.87;;;;;;;-1.32;86.02;101222.92;1697655;83;21645;-64
2020/12/02 04:05:09;;;;;;;39.67;18.55;;;;;;;-1.34;86.01;101221.99;1697647;84;21230;-64
2020/12/02 04:07:37;;;;;;;49.48;20.92;;;;;;;-1.32;86.02;101224.21;1697644;84;21205;-64
2020/12/02 04:10:05;;;;;;;43.28;20.35;;;;;;;-1.32;86.13;101221.62;1697535;84;21670;-65
2020/12/02 04:12:33;;;;;;;39.75;19.20;;;;;;;-1.32;86.31;101230.67;1697480;83;21609;-64
2020/12/02 04:15:02;;;;;;;46.05;20.25;;;;;;;-1.31;86.21;101224.69;1697525;84;21174;-65
2020/12/02 04:17:29;;;;;;;44.58;18.80;;;;;;;-1.28;86.28;101237.27;1697536;84;21396;-64
2020/12/02 04:19:58;;;;;;;42.43;19.77;;;;;;;-1.31;86.23;101232.44;1697594;83;21686;-64
2020/12/02 04:22:26;;;;;;;40.00;18.65;;;;;;;-1.32;86.32;101231.54;1697728;84;21626;-64
2020/12/02 04:24:54;;;;;;;37.25;17.92;;;;;;;-1.29;86.43;101228.16;1697583;84;21190;-64
2020/12/02 04:27:22;;;;;;;37.55;17.52;;;;;;;-1.29;86.44;101225.58;1697750;84;21800;-64
2020/12/02 04:29:50;;;;;;;39.05;17.98;;;;;;;-1.30;86.40;101223.84;1697630;84;21204;-65
2020/12/02 04:32:18;;;;;;;42.13;17.17;;;;;;;-1.33;86.54;101228.94;1697420;84;21201;-64
2020/12/02 04:34:46;;;;;;;35.75;16.42;;;;;;;-1.32;86.46;101229.38;1697674;83;21594;-64
2020/12/02 04:37:14;;;;;;;39.95;18.48;;;;;;;-1.36;86.45;101231.41;1697565;83;21584;-65
2020/12/02 04:39:43;;;;;;;40.43;19.10;;;;;;;-1.35;86.69;101228.02;1697811;84;21186;-64
2020/12/02 04:42:11;;;;;;;39.05;16.70;;;;;;;-1.34;86.65;101224.58;1701552;83;21650;-64
2020/12/02 04:44:39;;;;;;;36.93;18.17;;;;;;;-1.34;86.58;101222.86;1712651;83;21484;-64
2020/12/02 04:47:11;;;;;;;39.80;17.75;;;;;;;-1.35;86.71;101229.30;1712593;83;21662;-65
2020/12/02 04:49:38;;;;;;;32.17;16.23;;;;;;;-1.38;86.71;101229.19;1709479;83;21658;-68
2020/12/02 04:52:12;;;;;;;37.45;17.40;;;;;;;-1.35;86.68;101225.42;1704742;84;21199;-65
2020/12/02 04:54:43;;;;;;;41.77;17.98;;;;;;;-1.37;86.48;101221.92;1704764;84;21377;-65
2020/12/02 04:57:11;;;;;;;36.63;17.02;;;;;;;-1.39;86.57;101228.75;1704566;84;21215;-65
2020/12/02 04:59:42;;;;;;;39.78;17.57;;;;;;;-1.39;86.66;101224.87;1704515;84;22243;-66
2020/12/02 05:02:25;;;;;;;42.13;18.32;;;;;;;-1.36;86.66;101223.66;1704712;82;21165;-64
2020/12/02 05:04:59;;;;;;;40.55;17.57;;;;;;;-1.38;86.77;101224.92;1704647;84;21663;-64
2020/12/02 05:07:28;;;;;;;40.52;18.32;;;;;;;-1.40;86.54;101224.00;1704632;84;21377;-66
2020/12/02 05:10:17;;;;;;;47.50;17.97;;;;;;;-1.39;86.56;101219.70;1704827;84;21196;-66
2020/12/02 05:12:46;;;;;;;48.75;19.00;;;;;;;-1.36;86.71;101222.36;1704669;84;21191;-66
2020/12/02 05:15:28;;;;;;;42.95;17.80;;;;;;;-1.39;86.66;101213.24;1704524;82;22088;-65
2020/12/02 05:18:12;;;;;;;46.58;20.30;;;;;;;-1.38;86.70;101222.73;1704772;82;21191;-65
2020/12/02 05:20:42;;;;;;;40.00;17.05;;;;;;;-1.37;86.62;101221.92;1704781;84;21486;-65
2020/12/02 05:23:21;;;;;;;45.08;19.60;;;;;;;-1.36;86.80;101224.52;1704522;84;21415;-65
2020/12/02 05:25:49;;;;;;;63.73;26.02;;;;;;;-1.38;86.65;101225.31;1704615;84;21159;-65
2020/12/02 05:28:30;;;;;;;73.75;28.35;;;;;;;-1.37;86.60;101225.80;1704501;84;21132;-65
2020/12/02 05:31:26;;;;;;;46.48;20.80;;;;;;;-1.40;86.54;101222.70;1704830;84;21167;-65
2020/12/02 05:33:57;;;;;;;45.55;19.98;;;;;;;-1.43;86.49;101223.89;1704782;84;22449;-66
2020/12/02 05:36:32;;;;;;;42.73;19.62;;;;;;;-1.41;86.48;101232.98;1661976;84;21654;-65
2020/12/02 05:39:20;;;;;;;40.83;19.25;;;;;;;-1.41;86.60;101238.16;1684747;84;21640;-64
2020/12/02 05:41:51;;;;;;;42.05;19.25;;;;;;;-1.43;86.72;101237.23;1701416;84;21195;-64
2020/12/02 06:51:41;;;;;;;133.97;58.73;;;;;;;-1.58;86.70;101260.92;1660916;86;21586;-72
2020/12/02 06:54:09;;;;;;;109.40;38.65;;;;;;;-1.59;86.89;101264.31;1662301;85;21096;-73
2020/12/02 06:56:36;;;;;;;65.87;26.48;;;;;;;-1.60;86.89;101263.44;1691430;81;21145;-71
2020/12/02 06:59:05;;;;;;;87.30;30.70;;;;;;;-1.61;86.70;101270.74;1718236;81;21110;-72
2020/12/02 07:01:34;;;;;;;74.97;32.03;;;;;;;-1.62;86.77;101264.23;1742203;81;21383;-72
2020/12/02 07:04:07;;;;;;;54.35;24.25;;;;;;;-1.63;86.82;101263.36;1744177;81;21169;-72
2020/12/02 07:06:35;;;;;;;158.97;46.85;;;;;;;-1.61;86.66;101265.58;1739478;81;21102;-72
2020/12/02 07:09:14;;;;;;;78.40;34.95;;;;;;;-1.58;86.69;101263.08;1733696;81;21136;-72
2020/12/02 07:11:55;;;;;;;73.33;30.65;;;;;;;-1.57;86.75;101256.20;1750372;81;21518;-72
2020/12/02 07:14:40;;;;;;;88.15;33.95;;;;;;;-1.55;86.71;101258.41;1728024;82;22247;-73
2020/12/02 07:17:11;;;;;;;60.15;24.67;;;;;;;-1.53;86.75;101262.80;1734224;81;21156;-73
2020/12/02 07:19:44;;;;;;;61.33;25.27;;;;;;;-1.50;86.68;101265.88;1736660;82;21113;-72
2020/12/02 07:22:19;;;;;;;56.25;21.73;;;;;;;-1.50;86.35;101260.30;1736497;82;21113;-72
2020/12/02 07:24:49;;;;;;;54.83;24.65;;;;;;;-1.49;86.39;101263.36;1736446;82;21085;-71
2020/12/02 07:27:20;;;;;;;50.90;23.47;;;;;;;-1.49;86.33;101265.94;1736658;82;21377;-72
2020/12/02 07:29:59;;;;;;;50.28;22.48;;;;;;;-1.48;86.17;101255.18;1736567;82;21183;-72
2020/12/02 07:32:27;;;;;;;47.73;22.73;;;;;;;-1.47;86.26;101259.53;1736797;82;21136;-73
2020/12/02 07:35:07;;;;;;;50.12;23.00;;;;;;;-1.49;85.96;101262.48;1733208;82;21470;-71
2020/12/02 07:37:35;;;;;;;58.10;26.02;;;;;;;-1.49;85.98;101264.65;1713565;82;21141;-72
2020/12/02 07:40:05;;;;;;;63.05;25.08;;;;;;;-1.50;86.10;101260.30;1714094;82;21384;-71
2020/12/02 07:42:40;;;;;;;49.23;21.27;;;;;;;-1.45;86.16;101266.02;1731855;82;21243;-72
2020/12/02 07:45:19;;;;;;;47.13;21.57;;;;;;;-1.48;85.79;101262.52;1735485;82;21544;-73
2020/12/02 07:48:00;;;;;;;53.85;25.80;;;;;;;-1.48;86.02;101261.22;1714258;82;21110;-73
2020/12/02 07:50:44;;;;;;;58.10;25.80;;;;;;;-1.43;86.18;101270.83;1711170;82;21120;-72
2020/12/02 07:53:29;;;;;;;61.70;27.87;;;;;;;-1.41;86.09;101273.04;1710082;82;21414;-70
2020/12/02 07:55:57;;;;;;;48.87;21.33;;;;;;;-1.39;86.11;101272.67;1736710;82;21146;-71
2020/12/02 07:58:29;;;;;;;46.95;22.27;;;;;;;-1.39;85.97;101272.67;1760636;81;21108;-71
2020/12/02 08:00:58;;;;;;;58.90;24.65;;;;;;;-1.40;85.89;101268.32;1762253;81;21088;-71
2020/12/02 08:03:34;;;;;;;54.60;23.32;;;;;;;-1.41;85.82;101267.45;1762177;81;21104;-71
2020/12/02 08:06:13;;;;;;;48.23;22.40;;;;;;;-1.40;85.92;101268.32;1762157;81;21426;-72
2020/12/02 08:08:41;;;;;;;58.42;23.75;;;;;;;-1.39;85.93;101270.09;1762391;81;21100;-71
2020/12/02 08:11:11;;;;;;;54.03;21.90;;;;;;;-1.38;85.84;101265.37;1762228;81;21060;-72
2020/12/02 08:13:48;;;;;;;51.33;24.80;;;;;;;-1.36;85.78;101265.00;1762443;81;21056;-71
2020/12/02 08:16:32;;;;;;;48.45;21.05;;;;;;;-1.36;85.82;101261.13;1762400;81;21092;-70
2020/12/02 08:19:01;;;;;;;57.60;25.60;;;;;;;-1.32;86.00;101266.85;1760574;80;21387;-74
2020/12/02 08:21:30;;;;;;;47.17;21.85;;;;;;;-1.27;85.83;101261.01;1753381;81;21105;-74
2020/12/02 08:24:41;;;;;;;51.42;21.52;;;;;;;-1.22;85.86;101263.72;1742937;81;21072;-73
2020/12/02 08:27:12;;;;;;;40.88;19.85;;;;;;;-1.17;85.74;101256.97;1732312;82;21080;-73
2020/12/02 08:29:49;;;;;;;48.92;24.10;;;;;;;-1.16;84.97;101258.70;1732256;81;21129;-72
2020/12/02 08:32:29;;;;;;;42.05;20.05;;;;;;;-1.18;85.02;101255.20;1732187;82;21380;-74
2020/12/02 08:34:56;;;;;;;54.18;24.60;;;;;;;-1.20;85.03;101247.81;1732200;82;21532;-72
2020/12/02 08:37:38;;;;;;;58.42;24.92;;;;;;;-1.23;84.84;101251.61;1741766;81;21141;-74
2020/12/02 08:40:29;;;;;;;62.83;24.43;;;;;;;-1.20;85.04;101252.11;1739011;81;21646;-73
2020/12/02 08:43:26;;;;;;;46.73;21.87;;;;;;;-1.20;85.35;101250.40;1762366;81;21156;-74
2020/12/02 08:46:24;;;;;;;54.80;23.42;;;;;;;-1.19;84.88;101250.01;1729730;82;21761;-72
2020/12/02 08:48:57;;;;;;;57.67;24.82;;;;;;;-1.22;85.20;101240.46;1690836;84;21622;-72
2020/12/02 08:51:26;;;;;;;67.10;29.42;;;;;;;-1.22;85.13;101241.75;1731323;82;21124;-73
2020/12/02 08:53:54;;;;;;;65.57;31.35;;;;;;;-1.20;85.24;101249.11;1731403;82;21144;-75
2020/12/02 08:56:32;;;;;;;58.42;25.17;;;;;;;-1.19;85.12;101243.13;1731585;82;21459;-72
2020/12/02 08:59:00;;;;;;;52.27;25.02;;;;;;;-1.17;85.09;101241.88;1716113;82;21983;-72
2020/12/02 09:01:28;;;;;;;59.25;27.65;;;;;;;-1.15;85.04;101243.68;1740908;82;21127;-73
2020/12/02 09:03:55;;;;;;;49.13;22.27;;;;;;;-1.10;85.19;101245.10;1716759;82;21160;-73
2020/12/02 09:06:24;;;;;;;55.60;25.62;;;;;;;-1.09;85.09;101236.07;1714252;81;21083;-74
2020/12/02 09:08:52;;;;;;;65.45;30.68;;;;;;;-1.06;85.27;101241.74;1712975;83;21163;-73
2020/12/02 09:11:29;;;;;;;45.08;22.55;;;;;;;-0.99;85.29;101241.50;1714011;81;21385;-73
2020/12/02 09:13:57;;;;;;;82.20;37.93;;;;;;;-0.95;84.79;101241.62;1712665;83;21135;-73
2020/12/02 09:16:35;;;;;;;53.00;25.72;;;;;;;-0.96;84.67;101248.08;1714158;81;21191;-73
2020/12/02 09:19:12;;;;;;;50.70;23.80;;;;;;;-0.93;84.71;101232.63;1845184;76;22836;-74
2020/12/02 09:21:43;;;;;;;39.95;19.95;;;;;;;-0.98;84.59;101235.52;1815025;79;21210;-73
2020/12/02 09:24:12;;;;;;;41.92;20.48;;;;;;;-1.00;84.37;101232.01;1815613;79;21849;-74
2020/12/02 09:26:40;;;;;;;43.63;20.15;;;;;;;-1.04;84.40;101234.04;1815869;79;21107;-73
2020/12/02 09:29:12;;;;;;;40.65;20.10;;;;;;;-1.02;84.39;101228.50;1816418;79;20996;-72
2020/12/02 09:31:41;;;;;;;38.88;19.62;;;;;;;-1.00;84.61;101228.12;1816423;79;21554;-73
2020/12/02 09:34:09;;;;;;;42.78;21.57;;;;;;;-0.98;84.68;101225.17;1816303;79;21621;-73
2020/12/02 09:36:37;;;;;;;39.80;18.75;;;;;;;-0.92;84.75;101232.69;1816493;79;21227;-74
2020/12/02 09:39:06;;;;;;;42.25;20.23;;;;;;;-0.89;84.55;101219.83;1816409;78;21115;-74
2020/12/02 09:42:02;;;;;;;44.08;21.55;;;;;;;-0.88;84.53;101225.86;1816522;79;21131;-75
2020/12/02 09:44:36;;;;;;;38.35;16.12;;;;;;;-0.90;84.47;101217.19;1816550;79;21645;-74
2020/12/02 09:47:11;;;;;;;44.80;22.52;;;;;;;-0.88;84.47;101221.98;1810079;77;21177;-74
2020/12/02 09:49:40;;;;;;;32.00;17.25;;;;;;;-0.85;84.57;101218.21;1805581;79;21486;-74
2020/12/02 09:52:16;;;;;;;41.55;20.37;;;;;;;-0.84;84.45;101214.78;1789203;79;21103;-74
2020/12/02 09:54:46;;;;;;;50.67;24.47;;;;;;;-0.82;84.76;101215.70;1784218;80;21187;-74
2020/12/02 09:59:59;;;;;;;37.97;18.13;;;;;;;-0.66;84.88;101213.97;1822338;75;22688;-71
2020/12/02 10:03:12;;;;;;;48.90;22.20;;;;;;;-0.68;84.72;101213.47;1798731;79;21669;-70
2020/12/02 10:05:59;;;;;;;49.15;24.02;;;;;;;-0.65;84.45;101215.70;1766896;80;21635;-70
2020/12/02 10:09:03;;;;;;;45.12;22.55;;;;;;;-0.60;84.42;101217.55;1796388;79;21137;-70
2020/12/02 10:11:47;;;;;;;79.75;33.00;;;;;;;-0.57;84.54;101211.17;1805743;79;21183;-71
2020/12/02 10:27:05;;;;;;;42.30;21.47;;;;;;;-0.06;82.33;101211.99;1805525;78;22083;-68
2020/12/02 10:30:08;;;;;;;50.10;26.75;;;;;;;-0.10;82.32;101216.64;1764444;80;21246;-69
2020/12/02 10:33:11;;;;;;;47.50;25.10;;;;;;;-0.12;82.47;101205.36;1840376;77;22749;-68
2020/12/02 10:35:41;;;;;;;45.40;21.52;;;;;;;-0.20;82.66;101217.27;1798625;78;21128;-66
2020/12/02 10:38:14;;;;;;;40.58;20.65;;;;;;;-0.26;82.61;101212.38;1815785;79;21367;-67
2020/12/02 10:40:48;;;;;;;38.35;18.82;;;;;;;-0.27;82.71;101214.52;1815775;79;22073;-68
2020/12/02 10:43:24;;;;;;;41.08;21.25;;;;;;;-0.31;83.06;101217.86;1815738;78;21132;-69
2020/12/02 10:45:52;;;;;;;43.87;21.15;;;;;;;-0.31;83.23;101215.27;1815875;79;21143;-69
2020/12/02 10:48:48;;;;;;;41.48;19.82;;;;;;;-0.32;83.10;101210.95;1815917;79;22197;-69
2020/12/02 10:51:16;;;;;;;35.63;18.40;;;;;;;-0.34;83.28;101210.03;1815645;79;21358;-69
2020/12/02 10:53:46;;;;;;;40.58;19.35;;;;;;;-0.35;83.14;101208.69;1812029;79;21162;-68
2020/12/02 10:56:17;;;;;;;42.73;20.37;;;;;;;-0.40;83.09;101213.75;1783122;79;21159;-67
2020/12/02 10:58:45;;;;;;;38.23;19.92;;;;;;;-0.39;83.41;101215.52;1808140;78;21158;-67
2020/12/02 11:01:13;;;;;;;51.00;21.60;;;;;;;-0.38;83.64;101213.37;1789117;79;21166;-68
2020/12/02 11:03:42;;;;;;;37.17;18.30;;;;;;;-0.37;83.65;101214.24;1787982;78;21440;-66
2020/12/02 11:06:15;;;;;;;42.50;19.87;;;;;;;-0.38;83.82;101210.78;1784905;78;21567;-67
2020/12/02 11:09:13;;;;;;;38.53;20.12;;;;;;;-0.35;83.83;101207.39;1793842;78;21174;-66
2020/12/02 11:12:20;;;;;;;44.08;22.25;;;;;;;-0.37;83.50;101202.17;1782686;80;21158;-68
2020/12/02 11:15:12;;;;;;;50.85;24.23;;;;;;;-0.40;83.70;101202.53;1782769;80;21127;-67
2020/12/02 11:18:12;;;;;;;44.38;20.55;;;;;;;-0.45;83.91;101202.42;1756025;80;21211;-67
2020/12/02 11:20:59;;;;;;;42.27;20.55;;;;;;;-0.46;83.95;101200.64;1751009;81;21131;-67
2020/12/02 11:23:52;;;;;;;45.95;24.70;;;;;;;-0.48;84.14;101201.06;1751114;81;21174;-67
2020/12/02 11:26:36;;;;;;;39.40;20.15;;;;;;;-0.53;84.30;101197.45;1751167;81;21123;-67
2020/12/02 11:29:07;;;;;;;47.43;23.00;;;;;;;-0.55;84.39;101193.55;1751930;80;21203;-68
2020/12/02 11:31:59;;;;;;;50.75;23.50;;;;;;;-0.53;84.41;101189.69;1739285;80;21375;-67
2020/12/02 11:34:48;;;;;;;41.45;20.00;;;;;;;-0.50;84.64;101196.26;1772872;80;21203;-66
2020/12/02 11:37:33;;;;;;;44.53;22.50;;;;;;;-0.47;84.82;101197.61;1743109;80;21187;-67
2020/12/02 11:40:12;;;;;;;43.65;20.85;;;;;;;-0.48;84.45;101202.35;1743871;82;21163;-66
2020/12/02 11:42:51;;;;;;;38.85;20.15;;;;;;;-0.51;84.36;101198.37;1741985;82;21170;-68
2020/12/02 11:45:38;;;;;;;36.60;18.52;;;;;;;-0.54;84.50;101198.30;1760215;81;21381;-67
2020/12/02 11:48:31;;;;;;;40.73;20.80;;;;;;;-0.59;84.61;101195.59;1772155;80;21223;-67
2020/12/02 11:51:24;;;;;;;35.38;18.92;;;;;;;-0.64;84.75;101201.08;1772232;81;21127;-67
2020/12/02 11:53:57;;;;;;;29.18;16.10;;;;;;;-0.67;84.83;101195.41;1772004;81;21162;-67
2020/12/02 11:56:38;;;;;;;37.88;18.07;;;;;;;-0.70;85.11;101191.44;1772242;81;21143;-67
2020/12/02 11:59:20;;;;;;;35.52;17.85;;;;;;;-0.74;85.14;101198.65;1773247;80;22254;-68
2020/12/02 12:01:57;;;;;;;34.92;17.10;;;;;;;-0.71;85.30;101200.05;1774058;80;21127;-67
2020/12/02 12:04:55;;;;;;;34.88;17.37;;;;;;;-0.74;85.46;101199.94;1730942;82;21124;-66
2020/12/02 12:07:34;;;;;;;28.52;15.10;;;;;;;-0.75;85.57;101196.91;1730967;82;21666;-66
2020/12/02 12:10:25;;;;;;;27.58;15.43;;;;;;;-0.75;85.65;101194.33;1731009;82;21144;-66
2020/12/02 12:13:13;;;;;;;28.77;14.30;;;;;;;-0.73;85.65;101187.48;1730945;81;21733;-66
2020/12/02 12:15:45;;;;;;;34.03;17.35;;;;;;;-0.70;85.92;101182.37;1730655;82;21645;-66
2020/12/02 12:18:24;;;;;;;34.53;19.42;;;;;;;-0.65;86.05;101187.67;1730947;81;21155;-66
2020/12/02 12:20:55;;;;;;;26.82;14.73;;;;;;;-0.61;85.91;101185.63;1730136;82;21710;-69
2020/12/02 12:23:45;;;;;;;;;;;;;;;-0.58;85.97;101184.83;1743625;80;21174;-71
2020/12/02 12:26:13;;;;;;;32.70;17.65;;;;;;;-0.58;86.16;101180.52;1743846;80;21155;-70
2020/12/02 12:28:44;;;;;;;28.77;15.85;;;;;;;-0.58;86.13;101181.81;1744747;81;21682;-71
2020/12/02 12:31:44;;;;;;;29.15;16.48;;;;;;;-0.57;86.20;101180.13;1743831;81;21106;-70
2020/12/02 12:34:44;;;;;;;33.18;16.62;;;;;;;-0.53;86.22;101184.52;1744163;82;21188;-70
2020/12/02 12:37:51;;;;;;;35.78;17.90;;;;;;;-0.51;86.05;101189.31;1744564;81;21554;-72
2020/12/02 12:40:30;;;;;;;44.20;18.92;;;;;;;-0.55;85.98;101191.36;1744452;81;21411;-71
2020/12/02 12:42:58;;;;;;;29.72;16.30;;;;;;;-0.54;86.02;101193.13;1744373;82;21183;-71
2020/12/02 12:45:44;;;;;;;40.78;18.65;;;;;;;-0.55;85.87;101197.83;1747324;82;21149;-70
2020/12/02 12:48:22;;;;;;;33.58;17.92;;;;;;;-0.58;85.81;101194.75;1728146;82;21121;-71
2020/12/02 12:50:51;;;;;;;26.20;14.85;;;;;;;-0.60;85.57;101192.96;1749550;82;21193;-71
2020/12/02 12:53:22;;;;;;;31.20;15.05;;;;;;;-0.65;85.67;101196.30;1749813;82;22526;-71
2020/12/02 12:55:53;;;;;;;30.05;15.45;;;;;;;-0.67;85.53;101200.59;1749521;82;21166;-70
2020/12/02 12:58:21;;;;;;;28.62;13.40;;;;;;;-0.71;85.40;101198.75;1751048;81;21146;-71
2020/12/02 13:00:51;;;;;;;28.85;14.70;;;;;;;-0.80;85.48;101198.94;1770376;80;21198;-70
2020/12/02 13:03:23;;;;;;;28.65;15.75;;;;;;;-0.83;85.76;101205.30;1770465;80;21179;-71
2020/12/02 13:06:00;;;;;;;43.85;16.32;;;;;;;-0.83;85.68;101202.29;1770208;81;21610;-70
2020/12/02 13:08:44;;;;;;;45.45;21.80;;;;;;;-0.83;85.88;101196.25;1770257;81;21578;-70
2020/12/02 13:11:35;;;;;;;38.50;19.15;;;;;;;-0.82;85.93;101196.30;1746293;81;21638;-68
2020/12/02 13:14:08;;;;;;;39.78;21.80;;;;;;;-0.79;86.04;101189.91;1770039;80;21156;-71